• Join FlightAware (Why Join?)
  • Login
  • US Flag 
02:48AM EDT


 

Airport Tracker/Info


-or-


 

Live Flight TrackerFlight Track Log ✈ GJS6253 ✈ 07-Jul-2013 ✈ KLGA - KCVG

Flight Track Log - Related Links

Times and Time Zones

All times are in EDT time to prevent confusion due to time zone crossing. See the GJS6253 flight status page for this flight to view local times or setup timezone preferences in your user account.

Time Position Orientation Groundspeed Altitude Reporting Facility
EDT Latitude Longitude Course Direction KTS MPH feet Rate Location/Type
06:53PM 40.8333 -73.9000 300° West 199 229 2,800  Level New York TRACON
06:54PM 40.9000 -73.9333 339° North 250 288 4,300 2,100 Climbing New York TRACON
06:55PM 40.9500 -73.9833 323° Northwest 271 312 7,000 2,340 Climbing New York TRACON
06:56PM 41.0167 -74.0500 323° Northwest 284 327 9,000 960 Climbing New York TRACON
06:57PM 41.0667 -74.1167 315° West 283 326 9,000  Level New York TRACON
06:58PM 40.9535 -74.2746 300° West  Level FlightAware Approximate
06:58PM 41.0833 -74.2167 282° West 269 310 9,000  Level New York TRACON
06:59PM 41.0833 -74.3167 270° West 268 308 9,000 -300 Level New York TRACON
07:00PM 41.0667 -74.4167 258° West 285 328 8,400 -240 Descending New York TRACON
07:01PM 41.0833 -74.5167 282° West 272 313 8,600 300 Climbing New York TRACON
07:02PM 41.1167 -74.6000 298° West 283 326 9,000  Climbing New York TRACON
07:04PM 41.1579 -74.7447 298° West  Level FlightAware Approximate
07:11PM 41.4144 -75.3384 299° West  Level FlightAware Approximate
07:12PM 41.4496 -75.4246 299° West  Level FlightAware Approximate
07:12PM 41.6722 -75.2558 254° West 268 308 9,000  Level New York Center
07:13PM 41.4564 -75.5151 254° West  Level FlightAware Approximate
07:13PM 41.6475 -75.3542 251° West 268 308 9,000  Level New York Center
07:14PM 41.4363 -75.6094 254° West  Level FlightAware Approximate
07:14PM 41.6233 -75.4411 250° West 279 321 9,000  Level New York Center
07:15PM 41.4161 -75.7038 254° West  Level FlightAware Approximate
07:15PM 41.6036 -75.5175 251° West 262 302 9,000  Level New York Center
07:16PM 41.3959 -75.7980 254° West  Level FlightAware Approximate
07:16PM 41.5817 -75.5992 250° West 249 287 9,000  Level New York Center
07:17PM 41.3756 -75.8923 254° West  Level FlightAware Approximate
07:17PM 41.5547 -75.6969 250° West 249 287 9,000  Level New York Center
07:18PM 41.5344 -75.7786 252° West 249 287 9,300 840 Climbing New York Center
07:19PM 41.5053 -75.8789 249° West 254 292 10,700 1,200 Climbing New York Center
07:20PM 41.4828 -75.9631 250° West 274 315 11,700 1,860 Climbing New York Center
07:21PM 41.4625 -76.0944 258° West 326 375 14,500 2,160 Climbing New York Center
07:22PM 41.4406 -76.2117 256° West 334 384 16,200 1,260 Climbing New York Center
07:23PM 41.4178 -76.3425 257° West 334 384 17,000 360 Climbing New York Center
07:24PM 41.3975 -76.4628 257° West 334 384 17,000  Level New York Center
07:25PM 41.3750 -76.5825 256° West 334 384 17,000 360 Level New York Center
07:26PM 41.3542 -76.7106 258° West 342 394 17,800 900 Climbing New York Center
07:27PM 41.3311 -76.8356 256° West 347 399 18,900 1,020 Climbing New York Center
07:28PM 41.3075 -76.9689 257° West 365 420 19,900 1,020 Climbing New York Center
07:29PM 41.2836 -77.1047 257° West 379 436 21,000 660 Climbing New York Center
07:30PM 41.2597 -77.2378 257° West 379 436 21,300 720 Climbing New York Center
07:31PM 41.2358 -77.3736 257° West 379 436 22,500 540 Climbing New York Center
07:35PM 41.1439 -77.8617 256° West 387 445 24,000 300 Climbing Cleveland Center
07:36PM 41.1197 -77.9950 257° West 387 445 24,000  Level Cleveland Center
07:37PM 41.0936 -78.1281 255° West 369 425 24,000 300 Level Cleveland Center
07:38PM 41.0733 -78.2531 258° West 375 432 24,600 780 Climbing Cleveland Center
07:39PM 41.0467 -78.3889 255° West 380 437 25,600 900 Climbing Cleveland Center
07:40PM 41.0203 -78.5300 256° West 386 444 26,500 840 Climbing Cleveland Center
07:41PM 40.9936 -78.6739 256° West 392 451 27,300 780 Climbing Cleveland Center
07:42PM 40.9625 -78.8206 254° West 405 466 28,100 780 Climbing Cleveland Center
07:43PM 40.9333 -78.9669 255° West 415 478 28,900 780 Climbing Cleveland Center
07:44PM 40.9042 -79.1189 256° West 415 478 29,700 540 Climbing Cleveland Center
07:45PM 40.8747 -79.2678 255° West 415 478 30,000 120 Climbing Cleveland Center
07:46PM 40.8431 -79.4167 254° West 420 483 30,000  Level Cleveland Center
07:47PM 40.8111 -79.5736 255° West 425 489 30,000  Level Cleveland Center
07:48PM 40.7831 -79.7247 256° West 430 495 30,000  Level Cleveland Center
07:49PM 40.7528 -79.8678 254° West 425 489 30,000  Level Cleveland Center
07:50PM 40.7164 -80.0353 254° West 425 489 30,000  Level Cleveland Center
07:51PM 40.6836 -80.1833 254° West 425 489 30,000  Level Cleveland Center
07:52PM 40.6528 -80.3342 255° West 425 489 30,000  Level Cleveland Center
07:53PM 40.6217 -80.4819 255° West 425 489 30,000  Level Cleveland Center
07:54PM 40.5925 -80.6269 255° West 420 483 30,000  Level Cleveland Center
07:55PM 40.5589 -80.7825 254° West 420 483 30,000  Level Cleveland Center
07:56PM 40.5272 -80.9328 255° West 425 489 30,000  Level Cleveland Center
07:57PM 40.4933 -81.0800 253° West 425 489 30,000  Level Cleveland Center
07:59PM 40.4175 -81.4169 254° West 431 496 30,000  Level Indianapolis Center
08:00PM 40.3833 -81.5689 254° West 430 495 30,000  Level Indianapolis Center
08:01PM 40.3492 -81.7239 254° West 435 501 30,000  Level Indianapolis Center
08:02PM 40.3139 -81.8769 253° West 435 501 30,000  Level Indianapolis Center
08:03PM 40.2797 -82.0311 254° West 435 501 30,000  Level Indianapolis Center
08:04PM 40.2389 -82.2047 253° West 436 502 30,000  Level Indianapolis Center
08:05PM 40.2036 -82.3597 253° West 439 505 30,000 -480 Level Indianapolis Center
08:06PM 40.1675 -82.5131 253° West 439 505 29,100 -1,200 Descending Indianapolis Center
08:07PM 40.1228 -82.6558 248° West 423 487 27,600 -1,500 Descending Indianapolis Center
08:08PM 40.0669 -82.7892 241° Southwest 414 476 26,100 -1,500 Descending Indianapolis Center
08:09PM 40.0128 -82.9200 242° Southwest 408 470 24,600 -1,560 Descending Indianapolis Center
08:10PM 39.9572 -83.0517 241° Southwest 411 473 23,000 -1,560 Descending Indianapolis Center
08:12PM 39.9033 -83.1800 241° Southwest 401 461 21,500 -1,500 Descending Indianapolis Center
08:13PM 39.8506 -83.3056 241° Southwest 392 451 20,000 -1,560 Descending Indianapolis Center
08:14PM 39.7983 -83.4289 241° Southwest 379 436 18,400 -1,500 Descending Indianapolis Center
08:15PM 39.7472 -83.5472 241° Southwest 364 419 17,000 -1,500 Descending Indianapolis Center
08:16PM 39.6994 -83.6608 241° Southwest 355 409 15,400 -1,560 Descending Indianapolis Center
08:17PM 39.6503 -83.7747 241° Southwest 357 411 13,900 -1,500 Descending Indianapolis Center
08:18PM 39.6036 -83.8828 241° Southwest 343 395 12,400 -1,500 Descending Indianapolis Center
08:19PM 39.5339 -83.9922 230° Southwest 335 386 10,900 -780 Descending Indianapolis Center
08:20PM 39.4694 -84.0847 228° Southwest 342 394 10,900 -300 Level Indianapolis Center
08:21PM 39.4269 -84.1850 241° Southwest 312 359 10,400 -960 Descending Indianapolis Center
08:22PM 39.3889 -84.2764 242° Southwest 291 335 9,000 -900 Descending Indianapolis Center
08:23PM 39.3533 -84.3639 242° Southwest 278 320 8,600 -840 Descending Indianapolis Center
08:24PM 39.3150 -84.4547 241° Southwest 282 325 7,300 -1,320 Descending Indianapolis Center
08:25PM 39.2794 -84.5403 242° Southwest 273 314 6,000 -1,320 Descending Indianapolis Center
08:26PM 39.2444 -84.6231 241° Southwest 263 303 4,600 -960 Descending Indianapolis Center
08:28PM 39.1194 -84.6667 195° South 243 280 3,200 -720 Descending Indianapolis Center